sensor_id;sensor_type;location;lat;lon;timestamp;P1;durP1;ratioP1;P2;durP2;ratioP2
70675;SDS011;59069;52.242;20.900;2023-07-13T00:01:18;15.33;;;9.53;;
70675;SDS011;59069;52.242;20.900;2023-07-13T00:03:44;16.30;;;10.23;;
70675;SDS011;59069;52.242;20.900;2023-07-13T00:06:09;17.98;;;9.77;;
70675;SDS011;59069;52.242;20.900;2023-07-13T00:08:35;15.77;;;10.00;;
70675;SDS011;59069;52.242;20.900;2023-07-13T00:11:01;16.53;;;9.27;;
70675;SDS011;59069;52.242;20.900;2023-07-13T00:13:27;14.55;;;9.43;;
70675;SDS011;59069;52.242;20.900;2023-07-13T00:15:54;14.77;;;8.40;;
70675;SDS011;59069;52.242;20.900;2023-07-13T00:18:20;15.40;;;9.43;;
70675;SDS011;59069;52.242;20.900;2023-07-13T00:20:46;16.70;;;9.10;;
70675;SDS011;59069;52.242;20.900;2023-07-13T00:23:13;17.40;;;9.90;;
70675;SDS011;59069;52.242;20.900;2023-07-13T00:25:38;17.87;;;10.17;;
70675;SDS011;59069;52.242;20.900;2023-07-13T00:28:03;14.27;;;9.63;;
70675;SDS011;59069;52.242;20.900;2023-07-13T00:30:29;19.33;;;10.03;;
70675;SDS011;59069;52.242;20.900;2023-07-13T00:32:55;19.33;;;10.47;;
70675;SDS011;59069;52.242;20.900;2023-07-13T00:35:20;18.80;;;10.70;;
70675;SDS011;59069;52.242;20.900;2023-07-13T00:37:46;17.97;;;9.97;;
70675;SDS011;59069;52.242;20.900;2023-07-13T00:40:12;17.80;;;9.93;;
70675;SDS011;59069;52.242;20.900;2023-07-13T00:42:39;16.03;;;10.20;;
70675;SDS011;59069;52.242;20.900;2023-07-13T00:47:36;16.65;;;10.65;;
70675;SDS011;59069;52.242;20.900;2023-07-13T00:50:02;16.13;;;10.13;;
70675;SDS011;59069;52.242;20.900;2023-07-13T00:52:29;14.82;;;9.30;;
70675;SDS011;59069;52.242;20.900;2023-07-13T00:54:55;17.45;;;9.55;;
70675;SDS011;59069;52.242;20.900;2023-07-13T00:57:22;16.52;;;10.48;;
70675;SDS011;59069;52.242;20.900;2023-07-13T00:59:49;13.53;;;9.40;;
70675;SDS011;59069;52.242;20.900;2023-07-13T01:02:18;18.30;;;10.48;;
70675;SDS011;59069;52.242;20.900;2023-07-13T01:04:44;15.25;;;9.98;;
70675;SDS011;59069;52.242;20.900;2023-07-13T01:07:10;15.37;;;10.70;;
70675;SDS011;59069;52.242;20.900;2023-07-13T01:09:36;18.75;;;10.50;;
70675;SDS011;59069;52.242;20.900;2023-07-13T01:12:02;16.87;;;10.47;;
70675;SDS011;59069;52.242;20.900;2023-07-13T01:14:28;17.70;;;10.52;;
70675;SDS011;59069;52.242;20.900;2023-07-13T01:16:54;15.57;;;9.90;;
70675;SDS011;59069;52.242;20.900;2023-07-13T01:22:01;15.15;;;10.10;;
70675;SDS011;59069;52.242;20.900;2023-07-13T01:24:38;16.60;;;10.73;;
70675;SDS011;59069;52.242;20.900;2023-07-13T01:27:06;18.35;;;10.35;;
70675;SDS011;59069;52.242;20.900;2023-07-13T01:29:33;17.60;;;11.00;;
70675;SDS011;59069;52.242;20.900;2023-07-13T01:32:01;17.57;;;10.53;;
70675;SDS011;59069;52.242;20.900;2023-07-13T01:34:27;18.38;;;10.95;;
70675;SDS011;59069;52.242;20.900;2023-07-13T01:36:52;21.80;;;11.00;;
70675;SDS011;59069;52.242;20.900;2023-07-13T01:39:21;16.65;;;10.82;;
70675;SDS011;59069;52.242;20.900;2023-07-13T01:41:47;17.77;;;11.30;;
70675;SDS011;59069;52.242;20.900;2023-07-13T01:44:13;17.63;;;11.50;;
70675;SDS011;59069;52.242;20.900;2023-07-13T01:46:39;18.60;;;11.45;;
70675;SDS011;59069;52.242;20.900;2023-07-13T01:49:04;18.47;;;10.90;;
70675;SDS011;59069;52.242;20.900;2023-07-13T01:51:29;18.93;;;11.50;;
70675;SDS011;59069;52.242;20.900;2023-07-13T01:53:55;18.20;;;11.33;;
70675;SDS011;59069;52.242;20.900;2023-07-13T01:56:20;20.08;;;10.40;;
70675;SDS011;59069;52.242;20.900;2023-07-13T01:58:46;18.03;;;10.73;;
70675;SDS011;59069;52.242;20.900;2023-07-13T02:01:11;18.03;;;11.17;;
70675;SDS011;59069;52.242;20.900;2023-07-13T02:03:37;16.35;;;10.90;;
70675;SDS011;59069;52.242;20.900;2023-07-13T02:06:02;18.10;;;11.17;;
70675;SDS011;59069;52.242;20.900;2023-07-13T02:08:28;19.07;;;11.70;;
70675;SDS011;59069;52.242;20.900;2023-07-13T02:10:53;18.13;;;11.03;;
70675;SDS011;59069;52.242;20.900;2023-07-13T02:13:18;20.67;;;11.40;;
70675;SDS011;59069;52.242;20.900;2023-07-13T02:15:44;19.47;;;11.40;;
70675;SDS011;59069;52.242;20.900;2023-07-13T02:18:10;16.98;;;10.43;;
70675;SDS011;59069;52.242;20.900;2023-07-13T02:20:35;17.50;;;11.23;;
70675;SDS011;59069;52.242;20.900;2023-07-13T02:23:00;17.23;;;10.57;;
70675;SDS011;59069;52.242;20.900;2023-07-13T02:25:26;17.77;;;11.30;;
70675;SDS011;59069;52.242;20.900;2023-07-13T02:27:52;18.67;;;11.17;;
70675;SDS011;59069;52.242;20.900;2023-07-13T02:30:18;18.47;;;10.67;;
70675;SDS011;59069;52.242;20.900;2023-07-13T02:32:44;18.88;;;12.13;;
70675;SDS011;59069;52.242;20.900;2023-07-13T02:35:09;18.80;;;10.57;;
70675;SDS011;59069;52.242;20.900;2023-07-13T02:37:35;18.88;;;10.20;;
70675;SDS011;59069;52.242;20.900;2023-07-13T02:40:01;18.73;;;11.00;;
70675;SDS011;59069;52.242;20.900;2023-07-13T02:42:33;17.35;;;11.32;;
70675;SDS011;59069;52.242;20.900;2023-07-13T02:44:58;18.27;;;11.63;;
70675;SDS011;59069;52.242;20.900;2023-07-13T02:47:23;15.37;;;10.63;;
70675;SDS011;59069;52.242;20.900;2023-07-13T02:49:49;19.73;;;10.80;;
70675;SDS011;59069;52.242;20.900;2023-07-13T02:52:14;20.98;;;10.55;;
70675;SDS011;59069;52.242;20.900;2023-07-13T02:54:39;20.10;;;10.90;;
70675;SDS011;59069;52.242;20.900;2023-07-13T02:57:05;20.23;;;12.20;;
70675;SDS011;59069;52.242;20.900;2023-07-13T02:59:31;20.75;;;11.80;;
70675;SDS011;59069;52.242;20.900;2023-07-13T03:01:56;18.33;;;11.87;;
70675;SDS011;59069;52.242;20.900;2023-07-13T03:04:22;19.08;;;11.40;;
70675;SDS011;59069;52.242;20.900;2023-07-13T03:06:47;20.87;;;11.57;;
70675;SDS011;59069;52.242;20.900;2023-07-13T03:09:13;18.50;;;11.87;;
70675;SDS011;59069;52.242;20.900;2023-07-13T03:11:38;17.57;;;11.57;;
70675;SDS011;59069;52.242;20.900;2023-07-13T03:14:03;22.43;;;12.83;;
70675;SDS011;59069;52.242;20.900;2023-07-13T03:16:29;22.67;;;12.73;;
70675;SDS011;59069;52.242;20.900;2023-07-13T03:18:54;20.97;;;12.03;;
70675;SDS011;59069;52.242;20.900;2023-07-13T03:21:20;18.67;;;11.37;;
70675;SDS011;59069;52.242;20.900;2023-07-13T03:23:46;18.07;;;11.73;;
70675;SDS011;59069;52.242;20.900;2023-07-13T03:26:13;18.70;;;11.80;;
70675;SDS011;59069;52.242;20.900;2023-07-13T03:28:43;21.15;;;12.60;;
70675;SDS011;59069;52.242;20.900;2023-07-13T03:31:11;17.47;;;11.10;;
70675;SDS011;59069;52.242;20.900;2023-07-13T03:33:41;17.75;;;11.60;;
70675;SDS011;59069;52.242;20.900;2023-07-13T03:36:10;21.50;;;11.20;;
70675;SDS011;59069;52.242;20.900;2023-07-13T03:38:38;19.35;;;11.48;;
70675;SDS011;59069;52.242;20.900;2023-07-13T03:41:03;19.90;;;11.37;;
70675;SDS011;59069;52.242;20.900;2023-07-13T03:43:29;18.93;;;11.57;;
70675;SDS011;59069;52.242;20.900;2023-07-13T03:45:54;17.90;;;11.73;;
70675;SDS011;59069;52.242;20.900;2023-07-13T03:48:20;17.40;;;10.97;;
70675;SDS011;59069;52.242;20.900;2023-07-13T03:50:46;18.67;;;12.00;;
70675;SDS011;59069;52.242;20.900;2023-07-13T03:53:13;18.65;;;12.18;;
70675;SDS011;59069;52.242;20.900;2023-07-13T03:55:38;18.10;;;11.40;;
70675;SDS011;59069;52.242;20.900;2023-07-13T03:58:24;18.25;;;11.90;;
70675;SDS011;59069;52.242;20.900;2023-07-13T04:00:52;17.23;;;11.03;;
70675;SDS011;59069;52.242;20.900;2023-07-13T04:03:18;18.38;;;11.90;;
70675;SDS011;59069;52.242;20.900;2023-07-13T04:05:43;18.83;;;11.70;;
70675;SDS011;59069;52.242;20.900;2023-07-13T04:08:08;20.60;;;11.63;;
70675;SDS011;59069;52.242;20.900;2023-07-13T04:10:34;19.20;;;11.93;;
70675;SDS011;59069;52.242;20.900;2023-07-13T04:12:59;17.97;;;12.13;;
70675;SDS011;59069;52.242;20.900;2023-07-13T04:15:26;17.57;;;11.17;;
70675;SDS011;59069;52.242;20.900;2023-07-13T04:17:54;23.52;;;12.00;;
70675;SDS011;59069;52.242;20.900;2023-07-13T04:20:19;19.67;;;12.40;;
70675;SDS011;59069;52.242;20.900;2023-07-13T04:22:45;17.67;;;10.82;;
70675;SDS011;59069;52.242;20.900;2023-07-13T04:25:11;22.23;;;11.90;;
70675;SDS011;59069;52.242;20.900;2023-07-13T04:27:36;19.23;;;11.73;;
70675;SDS011;59069;52.242;20.900;2023-07-13T04:30:01;19.07;;;11.57;;
70675;SDS011;59069;52.242;20.900;2023-07-13T04:32:27;19.53;;;12.17;;
70675;SDS011;59069;52.242;20.900;2023-07-13T04:34:52;21.70;;;12.33;;
70675;SDS011;59069;52.242;20.900;2023-07-13T04:37:20;20.33;;;12.50;;
70675;SDS011;59069;52.242;20.900;2023-07-13T04:39:46;22.70;;;13.03;;
70675;SDS011;59069;52.242;20.900;2023-07-13T04:42:11;19.10;;;12.27;;
70675;SDS011;59069;52.242;20.900;2023-07-13T04:44:37;22.43;;;12.60;;
70675;SDS011;59069;52.242;20.900;2023-07-13T04:47:03;25.23;;;12.93;;
70675;SDS011;59069;52.242;20.900;2023-07-13T04:49:28;19.73;;;11.83;;
70675;SDS011;59069;52.242;20.900;2023-07-13T04:51:53;20.33;;;12.10;;
70675;SDS011;59069;52.242;20.900;2023-07-13T04:54:19;18.88;;;11.90;;
70675;SDS011;59069;52.242;20.900;2023-07-13T04:56:45;18.53;;;12.20;;
70675;SDS011;59069;52.242;20.900;2023-07-13T04:59:10;18.93;;;12.40;;
70675;SDS011;59069;52.242;20.900;2023-07-13T05:01:36;18.73;;;12.67;;
70675;SDS011;59069;52.242;20.900;2023-07-13T05:04:01;18.60;;;12.13;;
70675;SDS011;59069;52.242;20.900;2023-07-13T05:06:26;20.33;;;12.37;;
70675;SDS011;59069;52.242;20.900;2023-07-13T05:08:53;19.95;;;12.70;;
70675;SDS011;59069;52.242;20.900;2023-07-13T05:11:18;22.60;;;13.37;;
70675;SDS011;59069;52.242;20.900;2023-07-13T05:13:44;18.33;;;12.80;;
70675;SDS011;59069;52.242;20.900;2023-07-13T05:16:09;20.07;;;13.00;;
70675;SDS011;59069;52.242;20.900;2023-07-13T05:18:35;20.67;;;12.20;;
70675;SDS011;59069;52.242;20.900;2023-07-13T05:23:35;17.50;;;11.60;;
70675;SDS011;59069;52.242;20.900;2023-07-13T05:26:02;24.38;;;12.65;;
70675;SDS011;59069;52.242;20.900;2023-07-13T05:28:28;18.92;;;11.68;;
70675;SDS011;59069;52.242;20.900;2023-07-13T05:30:55;21.05;;;11.43;;
70675;SDS011;59069;52.242;20.900;2023-07-13T05:33:20;18.27;;;12.57;;
70675;SDS011;59069;52.242;20.900;2023-07-13T05:35:46;21.30;;;12.13;;
70675;SDS011;59069;52.242;20.900;2023-07-13T05:38:12;21.98;;;12.27;;
70675;SDS011;59069;52.242;20.900;2023-07-13T05:40:37;20.13;;;12.93;;
70675;SDS011;59069;52.242;20.900;2023-07-13T05:43:03;19.77;;;13.37;;
70675;SDS011;59069;52.242;20.900;2023-07-13T05:45:28;21.77;;;13.60;;
70675;SDS011;59069;52.242;20.900;2023-07-13T05:47:54;21.52;;;13.45;;
70675;SDS011;59069;52.242;20.900;2023-07-13T05:50:19;20.23;;;13.77;;
70675;SDS011;59069;52.242;20.900;2023-07-13T05:52:46;25.35;;;15.55;;
70675;SDS011;59069;52.242;20.900;2023-07-13T05:55:11;23.27;;;13.93;;
70675;SDS011;59069;52.242;20.900;2023-07-13T05:57:37;23.93;;;14.27;;
70675;SDS011;59069;52.242;20.900;2023-07-13T06:00:02;22.30;;;14.57;;
70675;SDS011;59069;52.242;20.900;2023-07-13T06:02:28;21.23;;;14.23;;
70675;SDS011;59069;52.242;20.900;2023-07-13T06:04:53;21.13;;;13.40;;
70675;SDS011;59069;52.242;20.900;2023-07-13T06:07:19;24.83;;;15.87;;
70675;SDS011;59069;52.242;20.900;2023-07-13T06:09:44;24.90;;;15.03;;
70675;SDS011;59069;52.242;20.900;2023-07-13T06:12:09;25.67;;;14.40;;
70675;SDS011;59069;52.242;20.900;2023-07-13T06:14:35;21.95;;;13.85;;
70675;SDS011;59069;52.242;20.900;2023-07-13T06:17:00;23.23;;;14.50;;
70675;SDS011;59069;52.242;20.900;2023-07-13T06:19:25;22.57;;;14.03;;
70675;SDS011;59069;52.242;20.900;2023-07-13T06:21:51;24.43;;;13.93;;
70675;SDS011;59069;52.242;20.900;2023-07-13T06:24:16;25.63;;;16.10;;
70675;SDS011;59069;52.242;20.900;2023-07-13T06:26:42;20.52;;;13.35;;
70675;SDS011;59069;52.242;20.900;2023-07-13T06:29:07;20.60;;;12.80;;
70675;SDS011;59069;52.242;20.900;2023-07-13T06:31:33;22.57;;;14.60;;
70675;SDS011;59069;52.242;20.900;2023-07-13T06:33:58;23.60;;;14.77;;
70675;SDS011;59069;52.242;20.900;2023-07-13T06:36:23;21.13;;;13.80;;
70675;SDS011;59069;52.242;20.900;2023-07-13T06:38:49;22.00;;;12.20;;
70675;SDS011;59069;52.242;20.900;2023-07-13T06:41:14;17.17;;;11.57;;
70675;SDS011;59069;52.242;20.900;2023-07-13T06:43:40;19.75;;;11.90;;
70675;SDS011;59069;52.242;20.900;2023-07-13T06:46:05;17.47;;;11.27;;
70675;SDS011;59069;52.242;20.900;2023-07-13T06:48:31;18.88;;;10.57;;
70675;SDS011;59069;52.242;20.900;2023-07-13T06:50:57;15.33;;;9.50;;
70675;SDS011;59069;52.242;20.900;2023-07-13T06:53:22;19.77;;;9.73;;
70675;SDS011;59069;52.242;20.900;2023-07-13T06:55:48;17.10;;;10.07;;
70675;SDS011;59069;52.242;20.900;2023-07-13T06:58:15;14.63;;;9.57;;
70675;SDS011;59069;52.242;20.900;2023-07-13T07:00:42;9.77;;;4.90;;
70675;SDS011;59069;52.242;20.900;2023-07-13T07:03:07;8.40;;;4.67;;
70675;SDS011;59069;52.242;20.900;2023-07-13T07:05:32;9.27;;;4.50;;
70675;SDS011;59069;52.242;20.900;2023-07-13T07:07:58;8.00;;;4.60;;
70675;SDS011;59069;52.242;20.900;2023-07-13T07:10:24;10.32;;;5.80;;
70675;SDS011;59069;52.242;20.900;2023-07-13T07:12:50;10.63;;;5.28;;
70675;SDS011;59069;52.242;20.900;2023-07-13T07:15:16;10.77;;;5.43;;
70675;SDS011;59069;52.242;20.900;2023-07-13T07:17:42;8.90;;;5.15;;
70675;SDS011;59069;52.242;20.900;2023-07-13T07:20:08;12.27;;;4.73;;
70675;SDS011;59069;52.242;20.900;2023-07-13T07:22:34;9.88;;;5.05;;
70675;SDS011;59069;52.242;20.900;2023-07-13T07:25:00;8.33;;;4.10;;
70675;SDS011;59069;52.242;20.900;2023-07-13T07:27:25;8.73;;;4.27;;
70675;SDS011;59069;52.242;20.900;2023-07-13T07:29:51;8.35;;;4.50;;
70675;SDS011;59069;52.242;20.900;2023-07-13T07:32:16;9.50;;;3.97;;
70675;SDS011;59069;52.242;20.900;2023-07-13T07:34:41;9.47;;;4.30;;
70675;SDS011;59069;52.242;20.900;2023-07-13T07:37:09;10.60;;;4.30;;
70675;SDS011;59069;52.242;20.900;2023-07-13T07:39:37;9.00;;;4.70;;
70675;SDS011;59069;52.242;20.900;2023-07-13T07:42:02;8.43;;;4.88;;
70675;SDS011;59069;52.242;20.900;2023-07-13T07:44:27;8.73;;;4.50;;
70675;SDS011;59069;52.242;20.900;2023-07-13T07:46:53;11.33;;;5.30;;
70675;SDS011;59069;52.242;20.900;2023-07-13T07:49:19;9.98;;;4.95;;
70675;SDS011;59069;52.242;20.900;2023-07-13T07:51:45;7.75;;;4.25;;
70675;SDS011;59069;52.242;20.900;2023-07-13T07:54:10;10.33;;;4.50;;
70675;SDS011;59069;52.242;20.900;2023-07-13T07:56:36;9.02;;;4.15;;
70675;SDS011;59069;52.242;20.900;2023-07-13T07:59:01;7.40;;;4.10;;
70675;SDS011;59069;52.242;20.900;2023-07-13T08:01:27;9.20;;;4.70;;
70675;SDS011;59069;52.242;20.900;2023-07-13T08:03:52;8.40;;;4.73;;
70675;SDS011;59069;52.242;20.900;2023-07-13T08:06:17;8.63;;;4.37;;
70675;SDS011;59069;52.242;20.900;2023-07-13T08:08:44;8.98;;;4.32;;
70675;SDS011;59069;52.242;20.900;2023-07-13T08:11:10;7.37;;;4.30;;
70675;SDS011;59069;52.242;20.900;2023-07-13T08:13:36;10.88;;;4.35;;
70675;SDS011;59069;52.242;20.900;2023-07-13T08:16:04;10.15;;;4.60;;
70675;SDS011;59069;52.242;20.900;2023-07-13T08:18:30;10.40;;;4.73;;
70675;SDS011;59069;52.242;20.900;2023-07-13T08:20:55;8.38;;;4.30;;
70675;SDS011;59069;52.242;20.900;2023-07-13T08:23:24;11.83;;;7.60;;
70675;SDS011;59069;52.242;20.900;2023-07-13T08:25:51;7.57;;;4.20;;
70675;SDS011;59069;52.242;20.900;2023-07-13T08:28:16;9.75;;;4.28;;
70675;SDS011;59069;52.242;20.900;2023-07-13T08:30:42;8.87;;;4.17;;
70675;SDS011;59069;52.242;20.900;2023-07-13T08:33:07;7.93;;;3.60;;
70675;SDS011;59069;52.242;20.900;2023-07-13T08:35:32;7.13;;;3.80;;
70675;SDS011;59069;52.242;20.900;2023-07-13T08:37:58;9.55;;;4.45;;
70675;SDS011;59069;52.242;20.900;2023-07-13T08:40:25;9.47;;;4.40;;
70675;SDS011;59069;52.242;20.900;2023-07-13T08:42:57;7.65;;;4.43;;
70675;SDS011;59069;52.242;20.900;2023-07-13T08:45:25;8.23;;;4.30;;
70675;SDS011;59069;52.242;20.900;2023-07-13T08:48:01;9.23;;;5.22;;
70675;SDS011;59069;52.242;20.900;2023-07-13T08:50:47;10.15;;;4.80;;
70675;SDS011;59069;52.242;20.900;2023-07-13T08:53:16;11.57;;;5.33;;
70675;SDS011;59069;52.242;20.900;2023-07-13T08:55:43;10.10;;;5.60;;
70675;SDS011;59069;52.242;20.900;2023-07-13T08:58:13;9.18;;;4.88;;
70675;SDS011;59069;52.242;20.900;2023-07-13T09:00:55;10.98;;;5.10;;
70675;SDS011;59069;52.242;20.900;2023-07-13T09:03:23;9.95;;;5.47;;
70675;SDS011;59069;52.242;20.900;2023-07-13T09:05:56;10.70;;;5.57;;
70675;SDS011;59069;52.242;20.900;2023-07-13T09:16:37;9.85;;;6.70;;
70675;SDS011;59069;52.242;20.900;2023-07-13T09:19:05;13.07;;;5.97;;
70675;SDS011;59069;52.242;20.900;2023-07-13T09:21:37;10.65;;;5.45;;
70675;SDS011;59069;52.242;20.900;2023-07-13T09:26:54;9.10;;;5.43;;
70675;SDS011;59069;52.242;20.900;2023-07-13T09:29:29;9.73;;;5.35;;
70675;SDS011;59069;52.242;20.900;2023-07-13T09:31:58;10.73;;;5.13;;
70675;SDS011;59069;52.242;20.900;2023-07-13T09:34:28;8.88;;;4.63;;
70675;SDS011;59069;52.242;20.900;2023-07-13T09:36:55;13.00;;;5.57;;
70675;SDS011;59069;52.242;20.900;2023-07-13T09:47:03;8.05;;;3.95;;
70675;SDS011;59069;52.242;20.900;2023-07-13T09:49:39;7.43;;;3.63;;
70675;SDS011;59069;52.242;20.900;2023-07-13T09:52:06;7.43;;;3.53;;
70675;SDS011;59069;52.242;20.900;2023-07-13T09:54:36;7.45;;;3.90;;
70675;SDS011;59069;52.242;20.900;2023-07-13T09:57:03;7.72;;;3.72;;
70675;SDS011;59069;52.242;20.900;2023-07-13T09:59:39;6.43;;;3.17;;
70675;SDS011;59069;52.242;20.900;2023-07-13T10:04:55;8.15;;;3.60;;
70675;SDS011;59069;52.242;20.900;2023-07-13T10:07:23;8.00;;;3.60;;
70675;SDS011;59069;52.242;20.900;2023-07-13T10:09:53;8.13;;;4.03;;
70675;SDS011;59069;52.242;20.900;2023-07-13T10:12:19;7.40;;;3.80;;
70675;SDS011;59069;52.242;20.900;2023-07-13T10:14:45;8.27;;;4.30;;
70675;SDS011;59069;52.242;20.900;2023-07-13T10:17:13;8.70;;;3.88;;
70675;SDS011;59069;52.242;20.900;2023-07-13T10:19:39;9.45;;;3.97;;
70675;SDS011;59069;52.242;20.900;2023-07-13T10:22:44;11.15;;;4.97;;
70675;SDS011;59069;52.242;20.900;2023-07-13T10:25:17;8.77;;;4.30;;
70675;SDS011;59069;52.242;20.900;2023-07-13T10:27:47;12.55;;;4.20;;
70675;SDS011;59069;52.242;20.900;2023-07-13T10:30:26;9.82;;;4.88;;
70675;SDS011;59069;52.242;20.900;2023-07-13T10:33:00;10.20;;;4.80;;
70675;SDS011;59069;52.242;20.900;2023-07-13T10:35:27;12.40;;;4.70;;
70675;SDS011;59069;52.242;20.900;2023-07-13T10:40:39;12.65;;;5.75;;
70675;SDS011;59069;52.242;20.900;2023-07-13T10:43:16;13.32;;;4.70;;
70675;SDS011;59069;52.242;20.900;2023-07-13T10:45:45;11.38;;;4.45;;
70675;SDS011;59069;52.242;20.900;2023-07-13T10:48:15;12.18;;;4.75;;
70675;SDS011;59069;52.242;20.900;2023-07-13T10:50:42;10.87;;;4.00;;
70675;SDS011;59069;52.242;20.900;2023-07-13T10:53:20;14.98;;;4.85;;
70675;SDS011;59069;52.242;20.900;2023-07-13T10:55:59;9.23;;;4.80;;
70675;SDS011;59069;52.242;20.900;2023-07-13T10:58:31;10.40;;;4.38;;
70675;SDS011;59069;52.242;20.900;2023-07-13T11:01:04;8.57;;;4.43;;
70675;SDS011;59069;52.242;20.900;2023-07-13T11:13:56;10.55;;;5.22;;
70675;SDS011;59069;52.242;20.900;2023-07-13T11:18:53;8.90;;;4.55;;
70675;SDS011;59069;52.242;20.900;2023-07-13T11:21:32;9.53;;;4.63;;
70675;SDS011;59069;52.242;20.900;2023-07-13T11:31:41;9.43;;;4.78;;
70675;SDS011;59069;52.242;20.900;2023-07-13T11:34:13;9.80;;;4.07;;
70675;SDS011;59069;52.242;20.900;2023-07-13T11:36:42;11.30;;;4.32;;
70675;SDS011;59069;52.242;20.900;2023-07-13T11:39:29;10.57;;;4.20;;
70675;SDS011;59069;52.242;20.900;2023-07-13T11:41:59;10.05;;;4.28;;
70675;SDS011;59069;52.242;20.900;2023-07-13T11:44:27;13.23;;;5.45;;
70675;SDS011;59069;52.242;20.900;2023-07-13T11:46:55;10.00;;;4.50;;
70675;SDS011;59069;52.242;20.900;2023-07-13T11:49:25;11.75;;;5.00;;
70675;SDS011;59069;52.242;20.900;2023-07-13T11:51:52;12.53;;;4.83;;
70675;SDS011;59069;52.242;20.900;2023-07-13T11:57:56;9.15;;;4.50;;
70675;SDS011;59069;52.242;20.900;2023-07-13T12:00:00;9.32;;;4.30;;
70675;SDS011;59069;52.242;20.900;2023-07-13T12:04:57;10.30;;;4.60;;
70675;SDS011;59069;52.242;20.900;2023-07-13T12:07:24;11.60;;;5.25;;
70675;SDS011;59069;52.242;20.900;2023-07-13T12:09:59;10.20;;;4.45;;
70675;SDS011;59069;52.242;20.900;2023-07-13T12:12:28;11.57;;;5.82;;
70675;SDS011;59069;52.242;20.900;2023-07-13T12:14:54;11.68;;;5.55;;
70675;SDS011;59069;52.242;20.900;2023-07-13T12:17:21;9.80;;;4.23;;
70675;SDS011;59069;52.242;20.900;2023-07-13T12:19:48;10.10;;;5.63;;
70675;SDS011;59069;52.242;20.900;2023-07-13T12:22:16;9.83;;;4.43;;
70675;SDS011;59069;52.242;20.900;2023-07-13T12:24:43;9.73;;;5.45;;
70675;SDS011;59069;52.242;20.900;2023-07-13T12:27:20;9.57;;;4.95;;
70675;SDS011;59069;52.242;20.900;2023-07-13T12:29:51;10.52;;;5.38;;
70675;SDS011;59069;52.242;20.900;2023-07-13T12:32:24;8.15;;;4.13;;
70675;SDS011;59069;52.242;20.900;2023-07-13T12:34:54;8.80;;;4.20;;
70675;SDS011;59069;52.242;20.900;2023-07-13T12:37:21;7.78;;;4.10;;
70675;SDS011;59069;52.242;20.900;2023-07-13T12:39:47;10.63;;;4.78;;
70675;SDS011;59069;52.242;20.900;2023-07-13T12:42:19;9.82;;;4.78;;
70675;SDS011;59069;52.242;20.900;2023-07-13T12:44:50;11.25;;;4.55;;
70675;SDS011;59069;52.242;20.900;2023-07-13T12:47:20;10.23;;;4.67;;
70675;SDS011;59069;52.242;20.900;2023-07-13T12:49:50;9.57;;;4.53;;
70675;SDS011;59069;52.242;20.900;2023-07-13T12:52:21;9.40;;;5.22;;
70675;SDS011;59069;52.242;20.900;2023-07-13T12:55:19;10.18;;;5.28;;
70675;SDS011;59069;52.242;20.900;2023-07-13T12:57:49;10.82;;;5.47;;
70675;SDS011;59069;52.242;20.900;2023-07-13T13:00:21;10.77;;;5.60;;
70675;SDS011;59069;52.242;20.900;2023-07-13T13:02:48;20.70;;;13.60;;
70675;SDS011;59069;52.242;20.900;2023-07-13T13:05:15;11.40;;;6.00;;
70675;SDS011;59069;52.242;20.900;2023-07-13T13:07:41;10.70;;;5.27;;
70675;SDS011;59069;52.242;20.900;2023-07-13T13:10:13;11.18;;;5.57;;
70675;SDS011;59069;52.242;20.900;2023-07-13T13:12:39;10.85;;;5.43;;
70675;SDS011;59069;52.242;20.900;2023-07-13T13:15:09;14.27;;;5.97;;
70675;SDS011;59069;52.242;20.900;2023-07-13T13:17:36;14.37;;;5.83;;
70675;SDS011;59069;52.242;20.900;2023-07-13T13:20:04;13.35;;;6.10;;
70675;SDS011;59069;52.242;20.900;2023-07-13T13:22:39;16.35;;;6.18;;
70675;SDS011;59069;52.242;20.900;2023-07-13T13:25:05;10.67;;;5.60;;
70675;SDS011;59069;52.242;20.900;2023-07-13T13:27:33;10.32;;;5.63;;
70675;SDS011;59069;52.242;20.900;2023-07-13T13:29:59;13.60;;;5.80;;
70675;SDS011;59069;52.242;20.900;2023-07-13T13:32:25;10.57;;;6.03;;
70675;SDS011;59069;52.242;20.900;2023-07-13T13:34:50;11.77;;;5.93;;
70675;SDS011;59069;52.242;20.900;2023-07-13T13:37:20;12.33;;;6.13;;
70675;SDS011;59069;52.242;20.900;2023-07-13T13:39:47;12.65;;;7.25;;
70675;SDS011;59069;52.242;20.900;2023-07-13T13:42:13;14.25;;;8.68;;
70675;SDS011;59069;52.242;20.900;2023-07-13T13:44:39;21.50;;;10.20;;
70675;SDS011;59069;52.242;20.900;2023-07-13T13:47:07;19.40;;;10.60;;
70675;SDS011;59069;52.242;20.900;2023-07-13T13:49:54;18.08;;;10.88;;
70675;SDS011;59069;52.242;20.900;2023-07-13T13:52:19;40.63;;;28.57;;
70675;SDS011;59069;52.242;20.900;2023-07-13T13:54:44;21.38;;;11.98;;
70675;SDS011;59069;52.242;20.900;2023-07-13T13:57:10;13.23;;;8.33;;
70675;SDS011;59069;52.242;20.900;2023-07-13T13:59:37;14.80;;;7.95;;
70675;SDS011;59069;52.242;20.900;2023-07-13T14:02:08;20.40;;;8.40;;
70675;SDS011;59069;52.242;20.900;2023-07-13T14:04:47;12.32;;;6.63;;
70675;SDS011;59069;52.242;20.900;2023-07-13T14:07:15;10.57;;;6.07;;
70675;SDS011;59069;52.242;20.900;2023-07-13T14:09:41;11.30;;;6.27;;
70675;SDS011;59069;52.242;20.900;2023-07-13T14:12:08;12.00;;;6.65;;
70675;SDS011;59069;52.242;20.900;2023-07-13T14:14:36;12.57;;;6.78;;
70675;SDS011;59069;52.242;20.900;2023-07-13T14:17:02;12.97;;;6.30;;
70675;SDS011;59069;52.242;20.900;2023-07-13T14:19:29;13.10;;;6.32;;
70675;SDS011;59069;52.242;20.900;2023-07-13T14:21:55;12.18;;;6.68;;
70675;SDS011;59069;52.242;20.900;2023-07-13T14:24:20;15.07;;;6.40;;
70675;SDS011;59069;52.242;20.900;2023-07-13T14:26:46;12.90;;;6.93;;
70675;SDS011;59069;52.242;20.900;2023-07-13T14:29:16;13.73;;;6.30;;
70675;SDS011;59069;52.242;20.900;2023-07-13T14:31:44;12.95;;;7.28;;
70675;SDS011;59069;52.242;20.900;2023-07-13T14:34:09;14.87;;;6.40;;
70675;SDS011;59069;52.242;20.900;2023-07-13T14:36:40;14.27;;;6.65;;
70675;SDS011;59069;52.242;20.900;2023-07-13T14:39:20;13.65;;;7.07;;
70675;SDS011;59069;52.242;20.900;2023-07-13T14:41:49;11.83;;;6.63;;
70675;SDS011;59069;52.242;20.900;2023-07-13T14:44:24;11.23;;;6.85;;
70675;SDS011;59069;52.242;20.900;2023-07-13T14:46:51;13.10;;;7.70;;
70675;SDS011;59069;52.242;20.900;2023-07-13T14:51:57;14.45;;;8.38;;
70675;SDS011;59069;52.242;20.900;2023-07-13T14:54:24;12.33;;;8.37;;
70675;SDS011;59069;52.242;20.900;2023-07-13T14:56:49;14.98;;;8.63;;
70675;SDS011;59069;52.242;20.900;2023-07-13T14:59:15;16.07;;;8.97;;
70675;SDS011;59069;52.242;20.900;2023-07-13T15:01:43;16.92;;;9.02;;
70675;SDS011;59069;52.242;20.900;2023-07-13T15:04:09;16.03;;;8.37;;
70675;SDS011;59069;52.242;20.900;2023-07-13T15:09:23;15.47;;;8.53;;
70675;SDS011;59069;52.242;20.900;2023-07-13T15:11:51;13.52;;;8.43;;
70675;SDS011;59069;52.242;20.900;2023-07-13T15:14:17;15.55;;;8.43;;
70675;SDS011;59069;52.242;20.900;2023-07-13T15:16:49;12.70;;;8.13;;
70675;SDS011;59069;52.242;20.900;2023-07-13T15:19:16;13.85;;;8.68;;
70675;SDS011;59069;52.242;20.900;2023-07-13T15:21:42;14.30;;;7.78;;
70675;SDS011;59069;52.242;20.900;2023-07-13T15:24:08;12.30;;;7.17;;